Time,TemperatureF,DewpointF,PressureIn,WindDirection,WindDirectionDegrees,WindSpeedMPH,WindSpeedGustMPH,Humidity,HourlyPrecipIn,Conditions,Clouds,dailyrainin,SoftwareType,DateUTC
2013-02-12 00:00:00,48.1,46.4,30.00,North,0,0.0,0.0,94,0.00,,,0.00,WUHU216HW,2013-02-12 05:00:00,
2013-02-12 00:05:00,48.1,46.4,30.00,North,0,0.0,0.0,94,0.00,,,0.00,WUHU216HW,2013-02-12 05:05:00,
2013-02-12 00:29:00,47.5,45.9,29.99,North,0,0.0,0.0,94,0.00,,,0.00,WUHU216HW,2013-02-12 05:29:00,
2013-02-12 00:30:00,47.5,45.9,29.99,North,0,0.0,0.0,94,0.00,,,0.00,WUHU216HW,2013-02-12 05:30:00,
2013-02-12 00:35:00,47.5,45.9,29.99,North,0,0.0,0.0,94,0.00,,,0.00,WUHU216HW,2013-02-12 05:35:00,
2013-02-12 01:00:00,47.2,45.8,30.01,North,0,0.0,0.0,95,0.00,,,0.00,WUHU216HW,2013-02-12 06:00:00,
2013-02-12 01:05:00,47.2,45.8,30.01,North,0,0.0,0.0,95,0.00,,,0.00,WUHU216HW,2013-02-12 06:05:00,
2013-02-12 01:30:00,47.5,46.2,29.99,North,0,0.0,0.0,95,0.00,,,0.00,WUHU216HW,2013-02-12 06:30:00,
2013-02-12 01:35:00,47.5,46.2,29.99,North,0,0.0,0.0,95,0.00,,,0.00,WUHU216HW,2013-02-12 06:35:00,
2013-02-12 01:59:00,47.2,45.5,29.99,North,0,0.0,0.0,94,0.00,,,0.00,WUHU216HW,2013-02-12 06:59:00,
2013-02-12 02:00:00,47.2,45.5,29.99,North,0,0.0,0.0,94,0.00,,,0.00,WUHU216HW,2013-02-12 07:00:00,
2013-02-12 02:05:00,47.2,45.5,29.99,North,0,0.0,0.0,94,0.00,,,0.00,WUHU216HW,2013-02-12 07:05:00,
2013-02-12 02:29:00,46.8,45.2,29.98,North,0,0.0,0.0,94,0.00,,,0.00,WUHU216HW,2013-02-12 07:29:00,
2013-02-12 02:30:00,46.8,45.2,29.98,North,0,0.0,0.0,94,0.00,,,0.00,WUHU216HW,2013-02-12 07:30:00,
2013-02-12 02:35:00,46.8,45.2,29.98,North,0,0.0,0.0,94,0.00,,,0.00,WUHU216HW,2013-02-12 07:35:00,
2013-02-12 03:00:00,46.6,45.0,30.00,North,0,0.0,0.0,94,0.00,,,0.00,WUHU216HW,2013-02-12 08:00:00,
2013-02-12 03:05:00,46.6,45.0,30.00,North,0,0.0,0.0,94,0.00,,,0.00,WUHU216HW,2013-02-12 08:05:00,
2013-02-12 03:30:00,46.4,44.6,30.00,North,0,0.0,0.0,93,0.00,,,0.00,WUHU216HW,2013-02-12 08:30:00,
2013-02-12 03:35:00,46.4,44.6,30.00,North,0,0.0,0.0,93,0.00,,,0.00,WUHU216HW,2013-02-12 08:35:00,
2013-02-12 04:00:00,45.7,43.6,29.99,North,0,0.0,0.0,92,0.00,,,0.00,WUHU216HW,2013-02-12 09:00:00,
2013-02-12 04:05:00,45.7,43.6,29.99,North,0,0.0,0.0,92,0.00,,,0.00,WUHU216HW,2013-02-12 09:05:00,
2013-02-12 04:29:00,45.7,43.6,29.97,North,0,0.0,0.0,92,0.00,,,0.00,WUHU216HW,2013-02-12 09:29:00,
2013-02-12 04:30:00,45.7,43.6,29.97,North,0,0.0,0.0,92,0.00,,,0.00,WUHU216HW,2013-02-12 09:30:00,
2013-02-12 04:35:00,45.7,43.6,29.97,North,0,0.0,0.0,92,0.00,,,0.00,WUHU216HW,2013-02-12 09:35:00,
2013-02-12 04:59:00,45.0,42.6,29.97,North,0,0.0,0.0,91,0.00,,,0.00,WUHU216HW,2013-02-12 09:59:00,
2013-02-12 05:00:00,45.0,42.6,29.97,North,0,0.0,0.0,91,0.00,,,0.00,WUHU216HW,2013-02-12 10:00:00,
2013-02-12 05:05:00,45.0,42.6,29.97,North,0,0.0,0.0,91,0.00,,,0.00,WUHU216HW,2013-02-12 10:05:00,
2013-02-12 05:29:00,44.5,42.0,29.98,North,0,0.0,0.0,91,0.00,,,0.00,WUHU216HW,2013-02-12 10:29:00,
2013-02-12 05:30:00,44.5,42.0,29.98,North,0,0.0,0.0,91,0.00,,,0.00,WUHU216HW,2013-02-12 10:30:00,
2013-02-12 05:35:00,44.5,42.0,29.98,North,0,0.0,0.0,91,0.00,,,0.00,WUHU216HW,2013-02-12 10:35:00,
2013-02-12 06:00:00,44.3,41.6,29.98,North,0,0.0,0.0,90,0.00,,,0.00,WUHU216HW,2013-02-12 11:00:00,
2013-02-12 06:05:00,44.3,41.6,29.98,North,0,0.0,0.0,90,0.00,,,0.00,WUHU216HW,2013-02-12 11:05:00,
2013-02-12 06:30:00,43.7,41.0,29.99,North,0,0.0,0.0,90,0.00,,,0.00,WUHU216HW,2013-02-12 11:30:00,
2013-02-12 06:35:00,43.7,41.0,29.99,North,0,0.0,0.0,90,0.00,,,0.00,WUHU216HW,2013-02-12 11:35:00,
2013-02-12 06:59:00,43.6,40.9,30.00,North,0,0.0,0.0,90,0.00,,,0.00,WUHU216HW,2013-02-12 11:59:00,
2013-02-12 07:00:00,43.6,40.9,30.00,North,0,0.0,0.0,90,0.00,,,0.00,WUHU216HW,2013-02-12 12:00:00,
2013-02-12 07:05:00,43.6,40.9,30.00,North,0,0.0,0.0,90,0.00,,,0.00,WUHU216HW,2013-02-12 12:05:00,
2013-02-12 07:29:00,43.2,39.9,30.02,North,0,0.0,0.0,88,0.00,,,0.00,WUHU216HW,2013-02-12 12:29:00,
2013-02-12 07:30:00,43.2,39.9,30.02,North,0,0.0,0.0,88,0.00,,,0.00,WUHU216HW,2013-02-12 12:30:00,
2013-02-12 07:35:00,43.2,39.9,30.02,North,0,0.0,0.0,88,0.00,,,0.00,WUHU216HW,2013-02-12 12:35:00,
2013-02-12 08:00:00,43.0,39.4,30.01,North,0,0.0,0.0,87,0.00,,,0.00,WUHU216HW,2013-02-12 13:00:00,
2013-02-12 08:05:00,43.2,39.6,30.01,North,0,0.0,0.0,87,0.00,,,0.00,WUHU216HW,2013-02-12 13:05:00,
2013-02-12 08:30:00,42.8,39.5,29.99,North,0,0.0,0.0,88,0.00,,,0.00,WUHU216HW,2013-02-12 13:30:00,
2013-02-12 08:31:00,42.8,39.5,29.99,North,0,0.0,0.0,88,0.00,,,0.00,WUHU216HW,2013-02-12 13:31:00,
2013-02-12 08:36:00,42.8,39.5,29.99,North,0,0.0,0.0,88,0.00,,,0.00,WUHU216HW,2013-02-12 13:36:00,
2013-02-12 08:59:00,44.8,40.9,29.99,North,0,0.0,0.0,86,0.00,,,0.00,WUHU216HW,2013-02-12 13:59:00,
2013-02-12 09:01:00,44.8,40.9,29.99,North,0,0.0,0.0,86,0.00,,,0.00,WUHU216HW,2013-02-12 14:01:00,
2013-02-12 09:06:00,44.8,40.9,29.99,North,0,0.0,0.0,86,0.00,,,0.00,WUHU216HW,2013-02-12 14:06:00,
2013-02-12 09:31:00,46.8,39.6,30.00,North,0,0.0,0.0,76,0.00,,,0.00,WUHU216HW,2013-02-12 14:31:00,
2013-02-12 09:36:00,46.8,39.6,30.00,North,0,0.0,0.0,76,0.00,,,0.00,WUHU216HW,2013-02-12 14:36:00,
2013-02-12 09:41:00,46.8,39.6,30.00,North,0,0.0,0.0,76,0.00,,,0.00,WUHU216HW,2013-02-12 14:41:00,
2013-02-12 10:00:00,49.5,42.2,29.98,North,0,0.0,0.0,76,0.00,,,0.00,WUHU216HW,2013-02-12 15:00:00,
2013-02-12 10:05:00,49.5,42.2,29.98,North,0,0.0,0.0,76,0.00,,,0.00,WUHU216HW,2013-02-12 15:05:00,
2013-02-12 10:30:00,52.2,41.6,29.99,North,0,0.0,0.0,67,0.00,,,0.00,WUHU216HW,2013-02-12 15:30:00,
2013-02-12 10:35:00,52.2,41.6,29.99,North,0,0.0,0.0,67,0.00,,,0.00,WUHU216HW,2013-02-12 15:35:00,
2013-02-12 11:00:00,54.2,36.5,29.97,North,0,0.0,0.0,51,0.00,,,0.00,WUHU216HW,2013-02-12 16:00:00,
2013-02-12 11:05:00,54.2,36.5,29.97,North,0,0.0,0.0,51,0.00,,,0.00,WUHU216HW,2013-02-12 16:05:00,
2013-02-12 11:30:00,53.6,39.7,29.99,North,0,0.0,0.0,59,0.00,,,0.00,WUHU216HW,2013-02-12 16:30:00,
2013-02-12 11:35:00,53.6,39.7,29.99,North,0,0.0,0.0,59,0.00,,,0.00,WUHU216HW,2013-02-12 16:35:00,
2013-02-12 11:59:00,53.5,40.0,29.97,North,0,0.0,0.0,60,0.00,,,0.00,WUHU216HW,2013-02-12 16:59:00,
2013-02-12 12:00:00,53.5,40.0,29.97,North,0,0.0,0.0,60,0.00,,,0.00,WUHU216HW,2013-02-12 17:00:00,
2013-02-12 12:05:00,53.5,40.0,29.97,North,0,0.0,0.0,60,0.00,,,0.00,WUHU216HW,2013-02-12 17:05:00,
2013-02-12 12:29:00,54.4,40.8,29.95,North,0,0.0,0.0,60,0.00,,,0.00,WUHU216HW,2013-02-12 17:29:00,
2013-02-12 12:30:00,54.4,40.8,29.95,North,0,0.0,0.0,60,0.00,,,0.00,WUHU216HW,2013-02-12 17:30:00,
2013-02-12 12:35:00,54.4,40.8,29.95,North,0,0.0,0.0,60,0.00,,,0.00,WUHU216HW,2013-02-12 17:35:00,
2013-02-12 13:00:00,54.0,40.0,29.94,North,0,0.0,0.0,59,0.00,,,0.00,WUHU216HW,2013-02-12 18:00:00,
2013-02-12 13:05:00,54.0,40.0,29.94,North,0,0.0,0.0,59,0.00,,,0.00,WUHU216HW,2013-02-12 18:05:00,
2013-02-12 13:30:00,53.8,39.3,29.93,North,0,0.0,0.0,58,0.00,,,0.00,WUHU216HW,2013-02-12 18:30:00,
2013-02-12 13:35:00,53.8,39.3,29.93,North,0,0.0,0.0,58,0.00,,,0.00,WUHU216HW,2013-02-12 18:35:00,
2013-02-12 13:59:00,54.0,40.9,29.92,North,0,0.0,0.0,61,0.00,,,0.00,WUHU216HW,2013-02-12 18:59:00,
2013-02-12 14:00:00,54.0,40.9,29.92,North,0,0.0,0.0,61,0.00,,,0.00,WUHU216HW,2013-02-12 19:00:00,
2013-02-12 14:05:00,54.0,40.9,29.92,North,0,0.0,0.0,61,0.00,,,0.00,WUHU216HW,2013-02-12 19:05:00,
2013-02-12 14:29:00,53.6,39.3,29.92,North,0,0.0,0.0,58,0.00,,,0.00,WUHU216HW,2013-02-12 19:29:00,
2013-02-12 14:30:00,53.6,39.3,29.92,North,0,0.0,0.0,58,0.00,,,0.00,WUHU216HW,2013-02-12 19:30:00,
2013-02-12 14:35:00,53.6,39.3,29.92,North,0,0.0,0.0,58,0.00,,,0.00,WUHU216HW,2013-02-12 19:35:00,
2013-02-12 15:00:00,53.1,41.2,29.92,North,0,0.0,0.0,64,0.00,,,0.00,WUHU216HW,2013-02-12 20:00:00,
2013-02-12 15:05:00,53.1,41.2,29.92,North,0,0.0,0.0,64,0.00,,,0.00,WUHU216HW,2013-02-12 20:05:00,
2013-02-12 15:30:00,52.0,42.7,29.91,North,0,0.0,0.0,70,0.00,,,0.00,WUHU216HW,2013-02-12 20:30:00,
2013-02-12 15:35:00,52.0,42.7,29.91,North,0,0.0,0.0,70,0.00,,,0.00,WUHU216HW,2013-02-12 20:35:00,
2013-02-12 15:59:00,50.4,43.1,29.89,North,0,0.0,0.0,76,0.01,,,0.00,WUHU216HW,2013-02-12 20:59:00,
2013-02-12 16:00:00,50.4,43.1,29.89,North,0,0.0,0.0,76,0.01,,,0.00,WUHU216HW,2013-02-12 21:00:00,
2013-02-12 16:05:00,50.4,43.1,29.89,North,0,0.0,0.0,76,0.01,,,0.00,WUHU216HW,2013-02-12 21:05:00,
2013-02-12 16:29:00,49.9,45.2,29.83,North,0,0.0,0.0,84,0.02,,,0.02,WUHU216HW,2013-02-12 21:29:00,
2013-02-12 16:30:00,49.9,45.2,29.83,North,0,0.0,0.0,84,0.02,,,0.02,WUHU216HW,2013-02-12 21:30:00,
2013-02-12 16:35:00,49.9,45.2,29.83,North,0,0.0,0.0,84,0.02,,,0.02,WUHU216HW,2013-02-12 21:35:00,
2013-02-12 17:00:00,49.5,44.2,29.83,North,0,0.0,0.0,82,0.01,,,0.02,WUHU216HW,2013-02-12 22:00:00,
2013-02-12 17:05:00,49.5,44.2,29.83,North,0,0.0,0.0,82,0.00,,,0.02,WUHU216HW,2013-02-12 22:05:00,
2013-02-12 17:30:00,48.6,43.9,29.86,North,0,0.0,0.0,84,0.00,,,0.02,WUHU216HW,2013-02-12 22:30:00,
2013-02-12 17:35:00,48.6,43.9,29.86,North,0,0.0,0.0,84,0.00,,,0.02,WUHU216HW,2013-02-12 22:35:00,
2013-02-12 18:00:00,47.9,43.3,29.86,North,0,0.0,0.0,84,0.02,,,0.02,WUHU216HW,2013-02-12 23:00:00,
2013-02-12 18:05:00,47.9,43.3,29.86,North,0,0.0,0.0,84,0.02,,,0.02,WUHU216HW,2013-02-12 23:05:00,
2013-02-12 18:29:00,47.2,43.8,29.84,North,0,0.0,0.0,88,0.04,,,0.04,WUHU216HW,2013-02-12 23:29:00,
2013-02-12 18:30:00,47.2,43.8,29.84,North,0,0.0,0.0,88,0.04,,,0.04,WUHU216HW,2013-02-12 23:30:00,
2013-02-12 18:35:00,47.2,43.8,29.84,North,0,0.0,0.0,88,0.04,,,0.04,WUHU216HW,2013-02-12 23:35:00,
2013-02-12 19:00:00,47.0,44.6,29.86,North,0,0.0,0.0,91,0.03,,,0.06,WUHU216HW,2013-02-13 00:00:00,
2013-02-12 19:05:00,47.0,44.6,29.86,North,0,0.0,0.0,91,0.02,,,0.08,WUHU216HW,2013-02-13 00:05:00,
2013-02-12 19:30:00,46.4,43.5,29.83,North,0,0.0,0.0,89,0.02,,,0.08,WUHU216HW,2013-02-13 00:30:00,
2013-02-12 19:35:00,46.4,43.5,29.83,North,0,0.0,0.0,89,0.02,,,0.08,WUHU216HW,2013-02-13 00:35:00,
2013-02-12 19:59:00,46.3,44.1,29.86,North,0,0.0,0.0,92,0.01,,,0.09,WUHU216HW,2013-02-13 00:59:00,
2013-02-12 20:00:00,46.3,44.1,29.86,North,0,0.0,0.0,92,0.01,,,0.09,WUHU216HW,2013-02-13 01:00:00,
2013-02-12 20:05:00,46.3,44.1,29.86,North,0,0.0,0.0,92,0.01,,,0.09,WUHU216HW,2013-02-13 01:05:00,
2013-02-12 20:29:00,46.4,44.0,29.83,North,0,0.0,0.0,91,0.00,,,0.09,WUHU216HW,2013-02-13 01:29:00,
2013-02-12 20:30:00,46.4,44.0,29.83,North,0,0.0,0.0,91,0.00,,,0.09,WUHU216HW,2013-02-13 01:30:00,
2013-02-12 20:35:00,46.4,44.0,29.83,North,0,0.0,0.0,91,0.00,,,0.09,WUHU216HW,2013-02-13 01:35:00,
2013-02-12 21:00:00,46.1,43.7,29.84,North,0,0.0,0.0,91,0.02,,,0.09,WUHU216HW,2013-02-13 02:00:00,
2013-02-12 21:05:00,46.1,43.7,29.85,North,0,0.0,0.0,91,0.02,,,0.11,WUHU216HW,2013-02-13 02:05:00,
2013-02-12 21:30:00,45.4,42.9,29.82,North,0,0.0,0.0,91,0.05,,,0.11,WUHU216HW,2013-02-13 02:30:00,
2013-02-12 21:35:00,45.4,42.9,29.82,North,0,0.0,0.0,91,0.05,,,0.11,WUHU216HW,2013-02-13 02:35:00,
2013-02-12 22:00:00,45.0,42.3,29.80,North,0,0.0,0.0,90,0.03,,,0.13,WUHU216HW,2013-02-13 03:00:00,
2013-02-12 22:01:00,45.0,42.3,29.80,North,0,0.0,0.0,90,0.03,,,0.13,WUHU216HW,2013-02-13 03:01:00,
2013-02-12 22:05:00,45.0,42.3,29.80,North,0,0.0,0.0,90,0.03,,,0.13,WUHU216HW,2013-02-13 03:05:00,
2013-02-12 22:29:00,45.0,42.6,29.80,North,0,0.0,0.0,91,0.01,,,0.15,WUHU216HW,2013-02-13 03:29:00,
2013-02-12 22:31:00,45.0,42.6,29.80,North,0,0.0,0.0,91,0.01,,,0.15,WUHU216HW,2013-02-13 03:31:00,
2013-02-12 22:36:00,45.0,42.6,29.80,North,0,0.0,0.0,91,0.01,,,0.15,WUHU216HW,2013-02-13 03:36:00,
2013-02-12 22:59:00,45.0,42.6,29.76,North,0,0.0,0.0,91,0.00,,,0.15,WUHU216HW,2013-02-13 03:59:00,
2013-02-12 23:01:00,45.0,42.6,29.76,North,0,0.0,0.0,91,0.00,,,0.15,WUHU216HW,2013-02-13 04:01:00,
2013-02-12 23:06:00,45.0,42.6,29.76,North,0,0.0,0.0,91,0.00,,,0.15,WUHU216HW,2013-02-13 04:06:00,
2013-02-12 23:30:00,44.6,42.2,29.77,North,0,0.0,0.0,91,0.00,,,0.15,WUHU216HW,2013-02-13 04:30:00,
2013-02-12 23:36:00,44.6,42.2,29.77,North,0,0.0,0.0,91,0.00,,,0.15,WUHU216HW,2013-02-13 04:36:00,